sensor_id;sensor_type;location;lat;lon;timestamp;temperature;humidity
4306;DHT22;2166;49.926;8.608;2022-10-16T00:01:14;16.10;84.60
4306;DHT22;2166;49.926;8.608;2022-10-16T00:03:42;16.10;84.60
4306;DHT22;2166;49.926;8.608;2022-10-16T00:06:12;16.10;84.50
4306;DHT22;2166;49.926;8.608;2022-10-16T00:08:40;16.10;84.40
4306;DHT22;2166;49.926;8.608;2022-10-16T00:11:08;16.10;84.30
4306;DHT22;2166;49.926;8.608;2022-10-16T00:13:37;16.20;84.20
4306;DHT22;2166;49.926;8.608;2022-10-16T00:16:05;16.10;84.20
4306;DHT22;2166;49.926;8.608;2022-10-16T00:18:33;16.10;84.20
4306;DHT22;2166;49.926;8.608;2022-10-16T00:21:02;16.10;84.20
4306;DHT22;2166;49.926;8.608;2022-10-16T00:23:31;16.10;84.30
4306;DHT22;2166;49.926;8.608;2022-10-16T00:25:59;16.10;84.40
4306;DHT22;2166;49.926;8.608;2022-10-16T00:28:27;16.10;84.50
4306;DHT22;2166;49.926;8.608;2022-10-16T00:30:56;16.10;84.50
4306;DHT22;2166;49.926;8.608;2022-10-16T00:33:24;16.00;84.50
4306;DHT22;2166;49.926;8.608;2022-10-16T00:35:53;16.00;84.60
4306;DHT22;2166;49.926;8.608;2022-10-16T00:38:20;16.00;84.60
4306;DHT22;2166;49.926;8.608;2022-10-16T00:40:50;16.10;84.60
4306;DHT22;2166;49.926;8.608;2022-10-16T00:43:32;16.10;84.60
4306;DHT22;2166;49.926;8.608;2022-10-16T00:46:01;16.10;84.60
4306;DHT22;2166;49.926;8.608;2022-10-16T00:48:29;16.10;84.50
4306;DHT22;2166;49.926;8.608;2022-10-16T00:50:58;16.10;84.50
4306;DHT22;2166;49.926;8.608;2022-10-16T00:53:26;16.10;84.50
4306;DHT22;2166;49.926;8.608;2022-10-16T00:55:57;16.10;84.40
4306;DHT22;2166;49.926;8.608;2022-10-16T00:58:25;16.00;84.40
4306;DHT22;2166;49.926;8.608;2022-10-16T01:00:53;16.00;84.30
4306;DHT22;2166;49.926;8.608;2022-10-16T01:03:22;15.90;84.30
4306;DHT22;2166;49.926;8.608;2022-10-16T01:05:51;15.90;84.30
4306;DHT22;2166;49.926;8.608;2022-10-16T01:08:24;15.80;84.30
4306;DHT22;2166;49.926;8.608;2022-10-16T01:10:57;15.80;84.20
4306;DHT22;2166;49.926;8.608;2022-10-16T01:13:27;15.80;84.20
4306;DHT22;2166;49.926;8.608;2022-10-16T01:16:02;15.70;84.20
4306;DHT22;2166;49.926;8.608;2022-10-16T01:18:33;15.70;84.20
4306;DHT22;2166;49.926;8.608;2022-10-16T01:21:06;15.70;84.10
4306;DHT22;2166;49.926;8.608;2022-10-16T01:23:36;15.70;84.00
4306;DHT22;2166;49.926;8.608;2022-10-16T01:26:11;15.70;83.90
4306;DHT22;2166;49.926;8.608;2022-10-16T01:28:45;15.70;83.90
4306;DHT22;2166;49.926;8.608;2022-10-16T01:31:16;15.70;83.70
4306;DHT22;2166;49.926;8.608;2022-10-16T01:33:46;15.70;83.60
4306;DHT22;2166;49.926;8.608;2022-10-16T01:36:15;15.80;84.30
4306;DHT22;2166;49.926;8.608;2022-10-16T01:38:44;15.80;84.20
4306;DHT22;2166;49.926;8.608;2022-10-16T01:41:15;15.80;84.20
4306;DHT22;2166;49.926;8.608;2022-10-16T01:43:46;15.80;84.10
4306;DHT22;2166;49.926;8.608;2022-10-16T01:46:17;15.80;84.00
4306;DHT22;2166;49.926;8.608;2022-10-16T01:48:46;15.80;83.90
4306;DHT22;2166;49.926;8.608;2022-10-16T01:51:15;15.80;83.90
4306;DHT22;2166;49.926;8.608;2022-10-16T01:53:44;15.80;83.90
4306;DHT22;2166;49.926;8.608;2022-10-16T01:56:13;15.80;83.90
4306;DHT22;2166;49.926;8.608;2022-10-16T01:58:44;15.80;83.90
4306;DHT22;2166;49.926;8.608;2022-10-16T02:01:15;15.80;83.90
4306;DHT22;2166;49.926;8.608;2022-10-16T02:03:50;15.80;83.90
4306;DHT22;2166;49.926;8.608;2022-10-16T02:06:18;15.80;84.00
4306;DHT22;2166;49.926;8.608;2022-10-16T02:08:46;15.80;84.10
4306;DHT22;2166;49.926;8.608;2022-10-16T02:11:14;15.80;84.20
4306;DHT22;2166;49.926;8.608;2022-10-16T02:13:43;15.90;84.10
4306;DHT22;2166;49.926;8.608;2022-10-16T02:16:13;15.90;84.10
4306;DHT22;2166;49.926;8.608;2022-10-16T02:18:43;15.90;84.20
4306;DHT22;2166;49.926;8.608;2022-10-16T02:21:13;15.90;84.20
4306;DHT22;2166;49.926;8.608;2022-10-16T02:23:42;16.00;84.30
4306;DHT22;2166;49.926;8.608;2022-10-16T02:26:14;16.00;84.20
4306;DHT22;2166;49.926;8.608;2022-10-16T02:28:44;16.00;84.30
4306;DHT22;2166;49.926;8.608;2022-10-16T02:31:14;15.90;84.30
4306;DHT22;2166;49.926;8.608;2022-10-16T02:33:44;15.90;83.70
4306;DHT22;2166;49.926;8.608;2022-10-16T02:36:13;15.90;83.70
4306;DHT22;2166;49.926;8.608;2022-10-16T02:38:41;15.90;83.70
4306;DHT22;2166;49.926;8.608;2022-10-16T02:41:09;16.00;83.60
4306;DHT22;2166;49.926;8.608;2022-10-16T02:43:37;16.00;83.60
4306;DHT22;2166;49.926;8.608;2022-10-16T02:46:05;16.10;83.60
4306;DHT22;2166;49.926;8.608;2022-10-16T02:48:33;16.10;83.50
4306;DHT22;2166;49.926;8.608;2022-10-16T02:51:03;16.10;84.10
4306;DHT22;2166;49.926;8.608;2022-10-16T02:53:31;16.10;84.10
4306;DHT22;2166;49.926;8.608;2022-10-16T02:55:59;16.20;84.00
4306;DHT22;2166;49.926;8.608;2022-10-16T02:58:27;16.20;84.00
4306;DHT22;2166;49.926;8.608;2022-10-16T03:00:55;16.30;84.00
4306;DHT22;2166;49.926;8.608;2022-10-16T03:03:23;16.30;83.70
4306;DHT22;2166;49.926;8.608;2022-10-16T03:05:51;16.40;83.70
4306;DHT22;2166;49.926;8.608;2022-10-16T03:08:20;16.40;83.60
4306;DHT22;2166;49.926;8.608;2022-10-16T03:10:50;16.40;83.60
4306;DHT22;2166;49.926;8.608;2022-10-16T03:13:18;16.40;83.70
4306;DHT22;2166;49.926;8.608;2022-10-16T03:15:47;16.50;83.60
4306;DHT22;2166;49.926;8.608;2022-10-16T03:18:15;16.50;83.60
4306;DHT22;2166;49.926;8.608;2022-10-16T03:20:44;16.40;83.70
4306;DHT22;2166;49.926;8.608;2022-10-16T03:23:12;16.40;83.70
4306;DHT22;2166;49.926;8.608;2022-10-16T03:25:41;16.40;83.80
4306;DHT22;2166;49.926;8.608;2022-10-16T03:28:09;16.40;83.90
4306;DHT22;2166;49.926;8.608;2022-10-16T03:30:37;16.50;83.90
4306;DHT22;2166;49.926;8.608;2022-10-16T03:33:06;16.50;83.80
4306;DHT22;2166;49.926;8.608;2022-10-16T03:35:34;16.50;83.70
4306;DHT22;2166;49.926;8.608;2022-10-16T03:38:03;16.50;83.70
4306;DHT22;2166;49.926;8.608;2022-10-16T03:40:30;16.50;83.50
4306;DHT22;2166;49.926;8.608;2022-10-16T03:43:00;16.50;83.50
4306;DHT22;2166;49.926;8.608;2022-10-16T03:45:28;16.50;83.40
4306;DHT22;2166;49.926;8.608;2022-10-16T03:47:57;16.60;83.40
4306;DHT22;2166;49.926;8.608;2022-10-16T03:50:25;16.70;83.10
4306;DHT22;2166;49.926;8.608;2022-10-16T03:52:53;16.70;83.10
4306;DHT22;2166;49.926;8.608;2022-10-16T03:55:21;16.70;83.00
4306;DHT22;2166;49.926;8.608;2022-10-16T03:57:49;16.80;82.90
4306;DHT22;2166;49.926;8.608;2022-10-16T04:00:18;16.80;82.70
4306;DHT22;2166;49.926;8.608;2022-10-16T04:02:46;16.80;82.70
4306;DHT22;2166;49.926;8.608;2022-10-16T04:05:14;16.80;82.70
4306;DHT22;2166;49.926;8.608;2022-10-16T04:07:42;16.80;82.70
4306;DHT22;2166;49.926;8.608;2022-10-16T04:10:10;16.70;82.60
4306;DHT22;2166;49.926;8.608;2022-10-16T04:12:37;16.60;82.80
4306;DHT22;2166;49.926;8.608;2022-10-16T04:15:06;16.50;82.90
4306;DHT22;2166;49.926;8.608;2022-10-16T04:17:35;16.50;83.10
4306;DHT22;2166;49.926;8.608;2022-10-16T04:20:03;16.50;83.20
4306;DHT22;2166;49.926;8.608;2022-10-16T04:22:31;16.40;83.30
4306;DHT22;2166;49.926;8.608;2022-10-16T04:24:59;16.50;83.50
4306;DHT22;2166;49.926;8.608;2022-10-16T04:27:27;16.50;83.40
4306;DHT22;2166;49.926;8.608;2022-10-16T04:29:57;16.60;83.40
4306;DHT22;2166;49.926;8.608;2022-10-16T04:32:25;16.60;83.40
4306;DHT22;2166;49.926;8.608;2022-10-16T04:34:55;16.60;83.50
4306;DHT22;2166;49.926;8.608;2022-10-16T04:37:23;16.60;83.50
4306;DHT22;2166;49.926;8.608;2022-10-16T04:39:51;16.70;83.50
4306;DHT22;2166;49.926;8.608;2022-10-16T04:42:19;16.70;83.40
4306;DHT22;2166;49.926;8.608;2022-10-16T04:44:47;16.80;83.30
4306;DHT22;2166;49.926;8.608;2022-10-16T04:47:15;16.80;83.40
4306;DHT22;2166;49.926;8.608;2022-10-16T04:49:43;16.80;83.30
4306;DHT22;2166;49.926;8.608;2022-10-16T04:52:12;16.80;83.30
4306;DHT22;2166;49.926;8.608;2022-10-16T04:54:40;16.80;83.30
4306;DHT22;2166;49.926;8.608;2022-10-16T04:57:08;16.80;83.30
4306;DHT22;2166;49.926;8.608;2022-10-16T04:59:36;16.70;83.30
4306;DHT22;2166;49.926;8.608;2022-10-16T05:05:41;16.70;83.40
4306;DHT22;2166;49.926;8.608;2022-10-16T05:08:11;16.70;83.50
4306;DHT22;2166;49.926;8.608;2022-10-16T05:10:40;16.70;83.70
4306;DHT22;2166;49.926;8.608;2022-10-16T05:13:08;16.60;83.50
4306;DHT22;2166;49.926;8.608;2022-10-16T05:15:37;16.70;83.60
4306;DHT22;2166;49.926;8.608;2022-10-16T05:18:05;16.70;83.70
4306;DHT22;2166;49.926;8.608;2022-10-16T05:20:32;16.70;83.50
4306;DHT22;2166;49.926;8.608;2022-10-16T05:23:00;16.70;83.60
4306;DHT22;2166;49.926;8.608;2022-10-16T05:25:30;16.70;83.60
4306;DHT22;2166;49.926;8.608;2022-10-16T05:27:57;16.80;83.60
4306;DHT22;2166;49.926;8.608;2022-10-16T05:30:25;16.80;83.60
4306;DHT22;2166;49.926;8.608;2022-10-16T05:32:54;16.90;83.50
4306;DHT22;2166;49.926;8.608;2022-10-16T05:35:22;16.90;83.40
4306;DHT22;2166;49.926;8.608;2022-10-16T05:37:50;17.00;83.30
4306;DHT22;2166;49.926;8.608;2022-10-16T05:40:18;17.00;83.30
4306;DHT22;2166;49.926;8.608;2022-10-16T05:42:47;17.00;83.10
4306;DHT22;2166;49.926;8.608;2022-10-16T05:45:15;17.00;82.80
4306;DHT22;2166;49.926;8.608;2022-10-16T05:47:43;16.90;82.70
4306;DHT22;2166;49.926;8.608;2022-10-16T05:50:11;16.80;82.90
4306;DHT22;2166;49.926;8.608;2022-10-16T05:52:39;16.60;83.00
4306;DHT22;2166;49.926;8.608;2022-10-16T05:55:07;16.50;83.30
4306;DHT22;2166;49.926;8.608;2022-10-16T05:57:35;16.50;83.50
4306;DHT22;2166;49.926;8.608;2022-10-16T06:00:04;16.50;83.50
4306;DHT22;2166;49.926;8.608;2022-10-16T06:02:38;16.50;83.60
4306;DHT22;2166;49.926;8.608;2022-10-16T06:05:06;16.50;83.70
4306;DHT22;2166;49.926;8.608;2022-10-16T06:07:34;16.60;83.70
4306;DHT22;2166;49.926;8.608;2022-10-16T06:10:03;16.60;83.70
4306;DHT22;2166;49.926;8.608;2022-10-16T06:12:31;16.70;83.60
4306;DHT22;2166;49.926;8.608;2022-10-16T06:14:59;16.70;83.50
4306;DHT22;2166;49.926;8.608;2022-10-16T06:17:28;16.80;83.50
4306;DHT22;2166;49.926;8.608;2022-10-16T06:19:56;16.90;83.40
4306;DHT22;2166;49.926;8.608;2022-10-16T06:22:24;16.90;83.30
4306;DHT22;2166;49.926;8.608;2022-10-16T06:24:52;16.90;83.30
4306;DHT22;2166;49.926;8.608;2022-10-16T06:27:20;17.00;83.20
4306;DHT22;2166;49.926;8.608;2022-10-16T06:29:47;17.00;83.20
4306;DHT22;2166;49.926;8.608;2022-10-16T06:32:15;17.10;83.10
4306;DHT22;2166;49.926;8.608;2022-10-16T06:34:44;17.10;83.10
4306;DHT22;2166;49.926;8.608;2022-10-16T06:37:12;17.20;83.00
4306;DHT22;2166;49.926;8.608;2022-10-16T06:39:40;17.20;82.80
4306;DHT22;2166;49.926;8.608;2022-10-16T06:42:08;17.30;82.80
4306;DHT22;2166;49.926;8.608;2022-10-16T06:44:36;17.30;82.80
4306;DHT22;2166;49.926;8.608;2022-10-16T06:47:04;17.30;82.80
4306;DHT22;2166;49.926;8.608;2022-10-16T06:49:33;17.40;82.80
4306;DHT22;2166;49.926;8.608;2022-10-16T06:52:02;17.50;82.50
4306;DHT22;2166;49.926;8.608;2022-10-16T06:54:30;17.50;82.20
4306;DHT22;2166;49.926;8.608;2022-10-16T06:57:08;17.60;82.20
4306;DHT22;2166;49.926;8.608;2022-10-16T06:59:35;17.60;82.00
4306;DHT22;2166;49.926;8.608;2022-10-16T07:02:03;17.60;81.90
4306;DHT22;2166;49.926;8.608;2022-10-16T07:04:32;17.60;81.90
4306;DHT22;2166;49.926;8.608;2022-10-16T07:07:00;17.70;81.90
4306;DHT22;2166;49.926;8.608;2022-10-16T07:09:34;17.80;82.10
4306;DHT22;2166;49.926;8.608;2022-10-16T07:12:02;17.80;81.90
4306;DHT22;2166;49.926;8.608;2022-10-16T07:14:30;17.90;82.00
4306;DHT22;2166;49.926;8.608;2022-10-16T07:16:58;18.00;81.70
4306;DHT22;2166;49.926;8.608;2022-10-16T07:19:26;18.00;81.70
4306;DHT22;2166;49.926;8.608;2022-10-16T07:21:59;17.90;81.60
4306;DHT22;2166;49.926;8.608;2022-10-16T07:24:26;17.80;81.60
4306;DHT22;2166;49.926;8.608;2022-10-16T07:26:57;17.70;81.80
4306;DHT22;2166;49.926;8.608;2022-10-16T07:29:25;17.70;81.80
4306;DHT22;2166;49.926;8.608;2022-10-16T07:31:52;17.60;81.90
4306;DHT22;2166;49.926;8.608;2022-10-16T07:34:20;17.50;81.90
4306;DHT22;2166;49.926;8.608;2022-10-16T07:36:49;17.40;82.20
4306;DHT22;2166;49.926;8.608;2022-10-16T07:39:17;17.30;82.50
4306;DHT22;2166;49.926;8.608;2022-10-16T07:41:45;17.30;82.50
4306;DHT22;2166;49.926;8.608;2022-10-16T07:44:15;17.30;82.60
4306;DHT22;2166;49.926;8.608;2022-10-16T07:46:43;17.30;82.70
4306;DHT22;2166;49.926;8.608;2022-10-16T07:49:10;17.40;82.70
4306;DHT22;2166;49.926;8.608;2022-10-16T07:51:38;17.50;82.60
4306;DHT22;2166;49.926;8.608;2022-10-16T07:54:07;17.70;82.70
4306;DHT22;2166;49.926;8.608;2022-10-16T07:56:35;17.80;82.50
4306;DHT22;2166;49.926;8.608;2022-10-16T07:59:08;17.90;82.50
4306;DHT22;2166;49.926;8.608;2022-10-16T08:01:37;18.00;82.10
4306;DHT22;2166;49.926;8.608;2022-10-16T08:04:05;18.00;81.80
4306;DHT22;2166;49.926;8.608;2022-10-16T08:06:34;18.00;81.50
4306;DHT22;2166;49.926;8.608;2022-10-16T08:09:03;18.00;81.70
4306;DHT22;2166;49.926;8.608;2022-10-16T08:11:31;18.00;81.90
4306;DHT22;2166;49.926;8.608;2022-10-16T08:13:59;18.10;81.90
4306;DHT22;2166;49.926;8.608;2022-10-16T08:16:27;18.10;81.90
4306;DHT22;2166;49.926;8.608;2022-10-16T08:19:00;18.00;81.80
4306;DHT22;2166;49.926;8.608;2022-10-16T08:21:28;18.00;81.80
4306;DHT22;2166;49.926;8.608;2022-10-16T08:23:56;18.00;81.80
4306;DHT22;2166;49.926;8.608;2022-10-16T08:26:24;18.00;81.90
4306;DHT22;2166;49.926;8.608;2022-10-16T08:28:53;18.10;82.10
4306;DHT22;2166;49.926;8.608;2022-10-16T08:31:21;18.10;82.10
4306;DHT22;2166;49.926;8.608;2022-10-16T08:33:49;18.00;81.60
4306;DHT22;2166;49.926;8.608;2022-10-16T08:36:20;17.90;82.00
4306;DHT22;2166;49.926;8.608;2022-10-16T08:38:48;17.80;82.10
4306;DHT22;2166;49.926;8.608;2022-10-16T08:41:26;17.70;82.20
4306;DHT22;2166;49.926;8.608;2022-10-16T08:44:07;17.60;82.50
4306;DHT22;2166;49.926;8.608;2022-10-16T08:46:39;17.50;82.70
4306;DHT22;2166;49.926;8.608;2022-10-16T08:49:16;17.30;83.00
4306;DHT22;2166;49.926;8.608;2022-10-16T08:51:45;17.30;83.30
4306;DHT22;2166;49.926;8.608;2022-10-16T08:54:21;17.40;83.40
4306;DHT22;2166;49.926;8.608;2022-10-16T08:56:50;17.30;83.30
4306;DHT22;2166;49.926;8.608;2022-10-16T08:59:18;17.30;83.30
4306;DHT22;2166;49.926;8.608;2022-10-16T09:01:46;17.20;83.50
4306;DHT22;2166;49.926;8.608;2022-10-16T09:04:23;17.10;83.60
4306;DHT22;2166;49.926;8.608;2022-10-16T09:06:57;17.10;83.90
4306;DHT22;2166;49.926;8.608;2022-10-16T09:09:36;17.20;84.10
4306;DHT22;2166;49.926;8.608;2022-10-16T09:12:09;17.30;84.10
4306;DHT22;2166;49.926;8.608;2022-10-16T09:17:29;17.40;83.90
4306;DHT22;2166;49.926;8.608;2022-10-16T09:20:03;17.40;83.90
4306;DHT22;2166;49.926;8.608;2022-10-16T09:22:39;17.40;84.00
4306;DHT22;2166;49.926;8.608;2022-10-16T09:25:10;17.50;84.00
4306;DHT22;2166;49.926;8.608;2022-10-16T09:27:39;17.50;83.80
4306;DHT22;2166;49.926;8.608;2022-10-16T09:30:12;17.60;83.80
4306;DHT22;2166;49.926;8.608;2022-10-16T09:32:40;17.50;83.50
4306;DHT22;2166;49.926;8.608;2022-10-16T09:35:11;17.60;83.50
4306;DHT22;2166;49.926;8.608;2022-10-16T09:37:42;17.60;83.50
4306;DHT22;2166;49.926;8.608;2022-10-16T09:40:12;17.90;83.60
4306;DHT22;2166;49.926;8.608;2022-10-16T09:42:40;18.20;82.70
4306;DHT22;2166;49.926;8.608;2022-10-16T09:45:19;18.30;82.20
4306;DHT22;2166;49.926;8.608;2022-10-16T09:47:48;18.50;82.20
4306;DHT22;2166;49.926;8.608;2022-10-16T09:50:23;18.80;81.80
4306;DHT22;2166;49.926;8.608;2022-10-16T09:53:08;19.20;81.10
4306;DHT22;2166;49.926;8.608;2022-10-16T09:55:47;19.90;80.80
4306;DHT22;2166;49.926;8.608;2022-10-16T09:58:15;20.80;79.20
4306;DHT22;2166;49.926;8.608;2022-10-16T10:00:48;21.40;78.50
4306;DHT22;2166;49.926;8.608;2022-10-16T10:03:20;21.80;77.00
4306;DHT22;2166;49.926;8.608;2022-10-16T10:05:55;21.90;77.00
4306;DHT22;2166;49.926;8.608;2022-10-16T10:08:31;21.70;76.60
4306;DHT22;2166;49.926;8.608;2022-10-16T10:10:59;22.10;76.30
4306;DHT22;2166;49.926;8.608;2022-10-16T10:13:27;22.30;75.40
4306;DHT22;2166;49.926;8.608;2022-10-16T10:15:55;22.50;75.40
4306;DHT22;2166;49.926;8.608;2022-10-16T10:18:24;22.70;75.60
4306;DHT22;2166;49.926;8.608;2022-10-16T10:20:59;22.90;75.20
4306;DHT22;2166;49.926;8.608;2022-10-16T10:23:28;23.80;72.80
4306;DHT22;2166;49.926;8.608;2022-10-16T10:25:59;24.10;72.20
4306;DHT22;2166;49.926;8.608;2022-10-16T10:28:42;24.20;72.00
4306;DHT22;2166;49.926;8.608;2022-10-16T10:31:18;24.80;72.80
4306;DHT22;2166;49.926;8.608;2022-10-16T10:33:50;25.10;69.60
4306;DHT22;2166;49.926;8.608;2022-10-16T10:36:26;24.80;70.60
4306;DHT22;2166;49.926;8.608;2022-10-16T10:38:57;24.50;71.30
4306;DHT22;2166;49.926;8.608;2022-10-16T10:41:42;24.70;71.50
4306;DHT22;2166;49.926;8.608;2022-10-16T10:44:16;24.90;70.60
4306;DHT22;2166;49.926;8.608;2022-10-16T10:46:48;25.10;70.40
4306;DHT22;2166;49.926;8.608;2022-10-16T10:49:27;25.70;69.00
4306;DHT22;2166;49.926;8.608;2022-10-16T10:52:07;25.80;68.20
4306;DHT22;2166;49.926;8.608;2022-10-16T10:54:37;25.50;68.90
4306;DHT22;2166;49.926;8.608;2022-10-16T10:57:12;25.20;69.40
4306;DHT22;2166;49.926;8.608;2022-10-16T10:59:58;25.30;68.80
4306;DHT22;2166;49.926;8.608;2022-10-16T11:02:31;25.50;69.40
4306;DHT22;2166;49.926;8.608;2022-10-16T11:05:19;26.40;68.20
4306;DHT22;2166;49.926;8.608;2022-10-16T11:07:51;27.50;67.40
4306;DHT22;2166;49.926;8.608;2022-10-16T11:10:20;28.30;65.50
4306;DHT22;2166;49.926;8.608;2022-10-16T11:12:52;28.30;65.10
4306;DHT22;2166;49.926;8.608;2022-10-16T11:15:21;28.40;63.90
4306;DHT22;2166;49.926;8.608;2022-10-16T11:17:52;27.80;65.10
4306;DHT22;2166;49.926;8.608;2022-10-16T11:20:22;28.10;65.10
4306;DHT22;2166;49.926;8.608;2022-10-16T11:22:51;27.90;64.80
4306;DHT22;2166;49.926;8.608;2022-10-16T11:25:21;28.40;65.20
4306;DHT22;2166;49.926;8.608;2022-10-16T11:27:54;29.40;62.00
4306;DHT22;2166;49.926;8.608;2022-10-16T11:30:25;30.60;59.30
4306;DHT22;2166;49.926;8.608;2022-10-16T11:33:02;31.60;58.20
4306;DHT22;2166;49.926;8.608;2022-10-16T11:35:34;32.40;55.50
4306;DHT22;2166;49.926;8.608;2022-10-16T11:38:07;32.90;53.90
4306;DHT22;2166;49.926;8.608;2022-10-16T11:40:37;31.40;56.60
4306;DHT22;2166;49.926;8.608;2022-10-16T11:43:10;30.20;59.60
4306;DHT22;2166;49.926;8.608;2022-10-16T11:45:42;29.50;60.80
4306;DHT22;2166;49.926;8.608;2022-10-16T11:48:14;28.50;62.60
4306;DHT22;2166;49.926;8.608;2022-10-16T11:50:46;28.30;64.00
4306;DHT22;2166;49.926;8.608;2022-10-16T11:53:18;28.80;63.40
4306;DHT22;2166;49.926;8.608;2022-10-16T11:55:49;29.80;62.00
4306;DHT22;2166;49.926;8.608;2022-10-16T11:58:21;31.40;58.90
4306;DHT22;2166;49.926;8.608;2022-10-16T12:00:53;32.30;55.90
4306;DHT22;2166;49.926;8.608;2022-10-16T12:03:25;32.00;55.20
4306;DHT22;2166;49.926;8.608;2022-10-16T12:05:56;31.70;58.10
4306;DHT22;2166;49.926;8.608;2022-10-16T12:08:26;31.90;55.90
4306;DHT22;2166;49.926;8.608;2022-10-16T12:11:03;32.00;55.10
4306;DHT22;2166;49.926;8.608;2022-10-16T12:13:35;32.40;55.00
4306;DHT22;2166;49.926;8.608;2022-10-16T12:16:04;32.30;54.60
4306;DHT22;2166;49.926;8.608;2022-10-16T12:18:33;31.90;54.70
4306;DHT22;2166;49.926;8.608;2022-10-16T12:21:01;31.50;56.10
4306;DHT22;2166;49.926;8.608;2022-10-16T12:23:36;31.80;54.00
4306;DHT22;2166;49.926;8.608;2022-10-16T12:26:04;31.70;53.90
4306;DHT22;2166;49.926;8.608;2022-10-16T12:28:34;31.30;56.30
4306;DHT22;2166;49.926;8.608;2022-10-16T12:31:04;31.10;56.30
4306;DHT22;2166;49.926;8.608;2022-10-16T12:33:40;31.10;56.20
4306;DHT22;2166;49.926;8.608;2022-10-16T12:36:10;31.00;55.80
4306;DHT22;2166;49.926;8.608;2022-10-16T12:38:45;30.60;56.80
4306;DHT22;2166;49.926;8.608;2022-10-16T12:41:23;30.80;55.90
4306;DHT22;2166;49.926;8.608;2022-10-16T12:43:53;30.80;56.40
4306;DHT22;2166;49.926;8.608;2022-10-16T12:46:34;30.90;56.70
4306;DHT22;2166;49.926;8.608;2022-10-16T12:49:20;31.30;56.00
4306;DHT22;2166;49.926;8.608;2022-10-16T12:51:49;31.10;55.40
4306;DHT22;2166;49.926;8.608;2022-10-16T12:54:18;30.10;57.90
4306;DHT22;2166;49.926;8.608;2022-10-16T12:56:50;29.50;58.60
4306;DHT22;2166;49.926;8.608;2022-10-16T12:59:23;28.70;61.20
4306;DHT22;2166;49.926;8.608;2022-10-16T13:01:56;28.00;62.70
4306;DHT22;2166;49.926;8.608;2022-10-16T13:04:31;27.70;64.50
4306;DHT22;2166;49.926;8.608;2022-10-16T13:07:10;27.70;64.40
4306;DHT22;2166;49.926;8.608;2022-10-16T13:09:45;27.60;63.90
4306;DHT22;2166;49.926;8.608;2022-10-16T13:12:26;27.20;64.90
4306;DHT22;2166;49.926;8.608;2022-10-16T13:15:01;26.70;65.70
4306;DHT22;2166;49.926;8.608;2022-10-16T13:17:33;26.30;66.20
4306;DHT22;2166;49.926;8.608;2022-10-16T13:20:06;25.90;66.60
4306;DHT22;2166;49.926;8.608;2022-10-16T13:22:40;25.60;67.70
4306;DHT22;2166;49.926;8.608;2022-10-16T13:25:15;25.30;67.70
4306;DHT22;2166;49.926;8.608;2022-10-16T13:27:47;25.20;67.90
4306;DHT22;2166;49.926;8.608;2022-10-16T13:30:25;25.10;68.20
4306;DHT22;2166;49.926;8.608;2022-10-16T13:32:58;25.10;68.10
4306;DHT22;2166;49.926;8.608;2022-10-16T13:35:28;25.10;67.80
4306;DHT22;2166;49.926;8.608;2022-10-16T13:38:03;25.00;68.10
4306;DHT22;2166;49.926;8.608;2022-10-16T13:40:31;25.00;68.30
4306;DHT22;2166;49.926;8.608;2022-10-16T13:43:01;24.90;68.50
4306;DHT22;2166;49.926;8.608;2022-10-16T13:45:30;25.00;67.90
4306;DHT22;2166;49.926;8.608;2022-10-16T13:48:02;25.00;68.10
4306;DHT22;2166;49.926;8.608;2022-10-16T13:50:30;24.90;68.30
4306;DHT22;2166;49.926;8.608;2022-10-16T13:53:04;24.80;68.30
4306;DHT22;2166;49.926;8.608;2022-10-16T13:55:32;24.70;68.60
4306;DHT22;2166;49.926;8.608;2022-10-16T13:58:04;24.60;68.60
4306;DHT22;2166;49.926;8.608;2022-10-16T14:00:34;24.20;69.00
4306;DHT22;2166;49.926;8.608;2022-10-16T14:03:03;24.10;69.70
4306;DHT22;2166;49.926;8.608;2022-10-16T14:05:34;23.70;70.10
4306;DHT22;2166;49.926;8.608;2022-10-16T14:08:03;23.60;70.80
4306;DHT22;2166;49.926;8.608;2022-10-16T14:10:31;23.50;70.90
4306;DHT22;2166;49.926;8.608;2022-10-16T14:13:00;23.40;70.80
4306;DHT22;2166;49.926;8.608;2022-10-16T14:15:29;23.40;71.00
4306;DHT22;2166;49.926;8.608;2022-10-16T14:17:59;23.50;70.70
4306;DHT22;2166;49.926;8.608;2022-10-16T14:20:33;23.50;70.70
4306;DHT22;2166;49.926;8.608;2022-10-16T14:23:03;23.20;72.00
4306;DHT22;2166;49.926;8.608;2022-10-16T14:25:32;22.90;72.70
4306;DHT22;2166;49.926;8.608;2022-10-16T14:28:01;22.70;73.20
4306;DHT22;2166;49.926;8.608;2022-10-16T14:30:29;22.50;73.10
4306;DHT22;2166;49.926;8.608;2022-10-16T14:33:00;22.60;73.50
4306;DHT22;2166;49.926;8.608;2022-10-16T14:35:29;22.70;73.40
4306;DHT22;2166;49.926;8.608;2022-10-16T14:37:58;22.70;73.20
4306;DHT22;2166;49.926;8.608;2022-10-16T14:40:26;22.70;72.90
4306;DHT22;2166;49.926;8.608;2022-10-16T14:42:54;22.90;72.90
4306;DHT22;2166;49.926;8.608;2022-10-16T14:45:24;22.90;72.70
4306;DHT22;2166;49.926;8.608;2022-10-16T14:47:54;23.00;72.70
4306;DHT22;2166;49.926;8.608;2022-10-16T14:50:24;23.00;72.50
4306;DHT22;2166;49.926;8.608;2022-10-16T14:52:52;22.90;72.60
4306;DHT22;2166;49.926;8.608;2022-10-16T14:55:20;22.80;72.80
4306;DHT22;2166;49.926;8.608;2022-10-16T14:57:49;22.80;72.80
4306;DHT22;2166;49.926;8.608;2022-10-16T15:00:23;22.60;72.90
4306;DHT22;2166;49.926;8.608;2022-10-16T15:02:51;22.60;73.40
4306;DHT22;2166;49.926;8.608;2022-10-16T15:05:20;22.60;73.20
4306;DHT22;2166;49.926;8.608;2022-10-16T15:07:50;22.60;73.30
4306;DHT22;2166;49.926;8.608;2022-10-16T15:10:21;22.70;73.40
4306;DHT22;2166;49.926;8.608;2022-10-16T15:12:50;22.90;73.20
4306;DHT22;2166;49.926;8.608;2022-10-16T15:15:25;23.00;73.00
4306;DHT22;2166;49.926;8.608;2022-10-16T15:17:55;23.20;72.50
4306;DHT22;2166;49.926;8.608;2022-10-16T15:20:24;23.30;72.30
4306;DHT22;2166;49.926;8.608;2022-10-16T15:22:54;23.30;72.50
4306;DHT22;2166;49.926;8.608;2022-10-16T15:25:27;23.30;72.50
4306;DHT22;2166;49.926;8.608;2022-10-16T15:27:56;23.20;72.50
4306;DHT22;2166;49.926;8.608;2022-10-16T15:30:24;23.20;72.50
4306;DHT22;2166;49.926;8.608;2022-10-16T15:32:53;23.10;72.70
4306;DHT22;2166;49.926;8.608;2022-10-16T15:35:22;23.00;72.80
4306;DHT22;2166;49.926;8.608;2022-10-16T15:37:50;22.80;73.30
4306;DHT22;2166;49.926;8.608;2022-10-16T15:43:06;22.60;73.80
4306;DHT22;2166;49.926;8.608;2022-10-16T15:45:35;22.50;74.00
4306;DHT22;2166;49.926;8.608;2022-10-16T15:48:03;22.50;74.20
4306;DHT22;2166;49.926;8.608;2022-10-16T15:50:32;22.30;74.20
4306;DHT22;2166;49.926;8.608;2022-10-16T15:53:00;22.10;74.80
4306;DHT22;2166;49.926;8.608;2022-10-16T15:55:29;22.00;75.10
4306;DHT22;2166;49.926;8.608;2022-10-16T15:57:57;21.90;75.40
4306;DHT22;2166;49.926;8.608;2022-10-16T16:00:27;21.70;75.60
4306;DHT22;2166;49.926;8.608;2022-10-16T16:02:56;21.60;76.10
4306;DHT22;2166;49.926;8.608;2022-10-16T16:05:24;21.40;76.40
4306;DHT22;2166;49.926;8.608;2022-10-16T16:07:54;21.40;76.50
4306;DHT22;2166;49.926;8.608;2022-10-16T16:10:22;21.40;76.50
4306;DHT22;2166;49.926;8.608;2022-10-16T16:12:51;21.30;76.80
4306;DHT22;2166;49.926;8.608;2022-10-16T16:15:20;21.20;76.90
4306;DHT22;2166;49.926;8.608;2022-10-16T16:17:54;21.10;77.00
4306;DHT22;2166;49.926;8.608;2022-10-16T16:20:22;20.90;77.50
4306;DHT22;2166;49.926;8.608;2022-10-16T16:22:51;20.80;77.70
4306;DHT22;2166;49.926;8.608;2022-10-16T16:25:19;20.70;77.80
4306;DHT22;2166;49.926;8.608;2022-10-16T16:27:47;20.60;78.00
4306;DHT22;2166;49.926;8.608;2022-10-16T16:30:15;20.50;78.20